Time;durP1;ratioP1;P1;durP2;ratioP2;P2;SDS_P1;SDS_P2;PMS_P1;PMS_P2;Temp;Humidity;BMP_temperature;BMP_pressure;BME280_temperature;BME280_humidity;BME280_pressure;Samples;Min_cycle;Max_cycle;Signal;HPM_P1;HPM_P2
2022/08/26 00:00:55;;;;;;;20.83;6.67;;;;;;;23.10;100.00;101001.59;2104535;28;20656;-64
2022/08/26 00:01:56;;;;;;;18.77;7.47;;;;;;;22.82;100.00;100969.66;2104746;28;20183;-64
2022/08/26 00:02:57;;;;;;;18.40;6.70;;;;;;;23.07;100.00;101013.91;2104322;28;20194;-65
2022/08/26 00:03:58;;;;;;;20.77;7.10;;;;;;;23.06;100.00;101001.84;2103490;28;20690;-64
2022/08/26 00:04:58;;;;;;;21.37;7.07;;;;;;;23.06;100.00;101001.06;2102996;28;20830;-65
2022/08/26 00:05:59;;;;;;;24.40;7.67;;;;;;;23.02;100.00;101006.97;2104897;28;20183;-64
2022/08/26 00:07:00;;;;;;;25.70;7.30;;;;;;;22.86;100.00;100975.81;2104346;28;20190;-64
2022/08/26 00:08:00;;;;;;;20.20;8.00;;;;;;;23.01;100.00;101001.81;2105308;28;20262;-65
2022/08/26 00:09:02;;;;;;;24.33;7.37;;;;;;;23.01;100.00;101005.44;2104696;28;20214;-64
2022/08/26 00:10:04;;;;;;;20.47;6.87;;;;;;;22.99;100.00;101008.00;2104664;28;20191;-64
2022/08/26 00:11:06;;;;;;;19.50;7.20;;;;;;;22.83;100.00;100988.91;2104799;28;20436;-64
2022/08/26 00:12:08;;;;;;;17.80;7.77;;;;;;;22.79;100.00;100982.75;2102901;28;20433;-64
2022/08/26 00:13:09;;;;;;;30.77;7.57;;;;;;;22.98;100.00;101003.59;2105076;28;20939;-64
2022/08/26 00:14:11;;;;;;;21.83;7.77;;;;;;;22.45;100.00;100924.56;2104884;28;20857;-64
2022/08/26 00:15:14;;;;;;;21.20;7.63;;;;;;;23.01;100.00;101004.66;2104782;28;20417;-65
2022/08/26 00:16:14;;;;;;;22.90;7.60;;;;;;;22.73;100.00;100967.06;2103094;28;20266;-64
2022/08/26 00:17:15;;;;;;;21.93;6.63;;;;;;;22.76;100.00;100985.78;2104417;28;20175;-64
2022/08/26 00:18:17;;;;;;;21.57;6.57;;;;;;;22.77;100.00;100979.66;2104787;28;20664;-64
2022/08/26 00:19:19;;;;;;;22.17;6.97;;;;;;;22.91;100.00;100998.47;2104725;28;20191;-64
2022/08/26 00:20:28;;;;;;;20.73;6.87;;;;;;;22.39;100.00;100937.88;2104043;28;20443;-64
2022/08/26 00:21:29;;;;;;;17.37;6.90;;;;;;;22.84;100.00;100995.34;2102593;28;20443;-64
2022/08/26 00:22:29;;;;;;;20.67;7.30;;;;;;;22.87;100.00;101000.75;2104742;28;20668;-64
2022/08/26 00:23:30;;;;;;;22.00;7.57;;;;;;;22.69;100.00;100987.06;2105181;28;20223;-64
2022/08/26 00:24:31;;;;;;;18.73;7.07;;;;;;;22.85;100.00;101008.19;2104853;28;20191;-64
2022/08/26 00:25:32;;;;;;;20.50;7.67;;;;;;;22.84;100.00;101010.25;2103274;28;20187;-65
2022/08/26 00:26:33;;;;;;;24.27;7.63;;;;;;;22.87;100.00;101000.00;2104614;28;20471;-64
2022/08/26 00:27:35;;;;;;;28.30;8.10;;;;;;;22.84;100.00;101006.66;2105020;28;20186;-64
2022/08/26 00:28:35;;;;;;;18.33;7.47;;;;;;;22.86;100.00;101004.06;2105131;28;20457;-65
2022/08/26 00:29:36;;;;;;;15.73;6.80;;;;;;;22.85;100.00;101005.38;2104528;28;20457;-64
2022/08/26 00:30:37;;;;;;;16.57;7.90;;;;;;;22.30;100.00;100921.13;2105053;28;20739;-65
2022/08/26 00:31:38;;;;;;;20.97;8.47;;;;;;;22.84;100.00;101004.59;2104868;28;20269;-64
2022/08/26 00:32:38;;;;;;;17.17;8.50;;;;;;;22.29;100.00;100928.06;2103860;28;20441;-65
2022/08/26 00:33:39;;;;;;;21.67;8.20;;;;;;;22.21;100.00;100920.56;2104873;28;20186;-64
2022/08/26 00:34:39;;;;;;;18.87;8.00;;;;;;;22.27;100.00;100927.78;2104332;28;20566;-64
2022/08/26 00:35:41;;;;;;;19.60;7.43;;;;;;;22.11;100.00;100902.28;2104766;28;20237;-64
2022/08/26 00:36:41;;;;;;;17.60;6.83;;;;;;;22.41;100.00;100946.59;2104800;28;20656;-64
2022/08/26 00:37:42;;;;;;;19.50;7.10;;;;;;;22.77;100.00;101013.56;2105357;28;20784;-64
2022/08/26 00:38:43;;;;;;;24.87;7.27;;;;;;;22.30;100.00;100940.88;2104990;28;20558;-65
2022/08/26 00:39:44;;;;;;;21.20;8.13;;;;;;;22.74;100.00;101008.94;2103795;28;20187;-65
2022/08/26 00:40:51;;;;;;;19.23;7.47;;;;;;;22.70;100.00;101008.38;2104827;28;20193;-64
2022/08/26 00:41:52;;;;;;;24.83;8.23;;;;;;;22.26;100.00;100942.41;2104389;28;20221;-64
2022/08/26 00:42:53;;;;;;;19.07;7.77;;;;;;;22.67;100.00;101005.81;2104752;28;20469;-64
2022/08/26 00:43:53;;;;;;;22.77;7.63;;;;;;;22.63;100.00;101002.44;2106407;28;20183;-64
2022/08/26 00:44:54;;;;;;;25.80;8.43;;;;;;;22.65;100.00;100997.06;2105957;28;20179;-64
2022/08/26 00:46:03;;;;;;;19.60;8.23;;;;;;;22.65;100.00;101005.53;2106505;28;20262;-64
2022/08/26 00:47:19;;;;;;;21.10;8.47;;;;;;;22.56;100.00;100988.81;2105078;28;20656;-64
2022/08/26 00:48:23;;;;;;;22.20;8.67;;;;;;;22.63;100.00;101003.19;2105970;28;20461;-64
2022/08/26 00:49:39;;;;;;;20.27;8.83;;;;;;;22.63;100.00;101005.28;2106083;28;20428;-65
2022/08/26 00:50:48;;;;;;;22.30;9.60;;;;;;;22.17;100.00;100929.28;2105724;28;21025;-65
2022/08/26 00:51:53;;;;;;;19.43;9.10;;;;;;;22.66;100.00;101010.69;2105842;28;20415;-65
2022/08/26 00:52:56;;;;;;;25.87;9.93;;;;;;;22.68;100.00;101007.34;2106367;28;20512;-65
2022/08/26 00:54:02;;;;;;;22.17;9.53;;;;;;;22.67;100.00;101008.63;2106703;28;20417;-64
2022/08/26 00:55:18;;;;;;;25.23;9.03;;;;;;;22.66;100.00;101010.69;2106131;28;20466;-64
2022/08/26 00:56:28;;;;;;;23.40;9.43;;;;;;;22.65;100.00;101006.31;2104652;28;21338;-64
2022/08/26 00:57:30;;;;;;;17.47;8.63;;;;;;;22.64;100.00;101012.47;2105781;28;20921;-64
2022/08/26 00:58:32;;;;;;;23.80;9.60;;;;;;;22.64;100.00;101013.25;2105621;28;20516;-64
2022/08/26 00:59:33;;;;;;;25.80;8.80;;;;;;;22.63;100.00;101011.69;2105639;28;20409;-65
2022/08/26 01:00:34;;;;;;;28.10;9.60;;;;;;;22.64;100.00;101012.47;2106419;28;20436;-64
2022/08/26 01:01:37;;;;;;;29.33;8.47;;;;;;;22.03;100.00;100912.50;2106197;28;20674;-65
2022/08/26 01:02:38;;;;;;;24.03;8.03;;;;;;;22.31;100.00;100956.53;2106302;28;20194;-65
2022/08/26 01:03:39;;;;;;;18.10;8.30;;;;;;;22.63;100.00;101008.09;2106222;28;20429;-63
2022/08/26 01:04:40;;;;;;;19.97;8.03;;;;;;;21.97;100.00;100906.84;2105988;28;20448;-65
2022/08/26 01:05:41;;;;;;;20.57;7.70;;;;;;;22.66;100.00;101009.91;2105341;28;20175;-64
2022/08/26 01:06:42;;;;;;;18.30;7.50;;;;;;;22.58;100.00;100992.69;2105709;28;20427;-64
2022/08/26 01:07:43;;;;;;;18.23;7.57;;;;;;;22.37;100.00;100985.56;2106769;28;20198;-65
2022/08/26 01:08:44;;;;;;;23.10;7.93;;;;;;;22.42;100.00;100987.66;2106267;28;20464;-65
2022/08/26 01:09:45;;;;;;;20.23;7.70;;;;;;;22.53;100.00;101013.19;2106032;28;20186;-64
2022/08/26 01:10:46;;;;;;;16.20;7.47;;;;;;;22.47;100.00;100998.25;2105837;28;20227;-64
2022/08/26 01:11:49;;;;;;;16.50;8.27;;;;;;;22.52;100.00;101008.81;2105692;28;20287;-64
2022/08/26 01:13:00;;;;;;;17.17;7.73;;;;;;;22.30;100.00;100971.94;2104636;28;20674;-65
2022/08/26 01:14:03;;;;;;;18.07;8.20;;;;;;;22.51;100.00;101010.09;2104995;28;20183;-64
2022/08/26 01:15:04;;;;;;;24.80;8.87;;;;;;;22.51;100.00;101012.16;2105151;28;20792;-64
2022/08/26 01:16:09;;;;;;;21.93;8.97;;;;;;;22.48;100.00;101021.63;2105517;28;20732;-64
2022/08/26 01:17:10;;;;;;;21.57;9.53;;;;;;;21.99;100.00;100945.81;2106133;28;20175;-64
2022/08/26 01:18:12;;;;;;;24.03;9.13;;;;;;;22.43;100.00;101017.47;2106186;28;20214;-64
2022/08/26 01:19:53;;;;;;;19.40;9.20;;;;;;;22.03;100.00;100966.13;2105813;28;20183;-64
2022/08/26 01:21:34;;;;;;;22.87;9.43;;;;;;;22.44;100.00;101026.69;2105544;28;20218;-64
2022/08/26 01:23:00;;;;;;;18.90;8.60;;;;;;;21.72;100.00;100921.81;2092767;28;20191;-64
2022/08/26 01:24:01;;;;;;;20.43;9.70;;;;;;;22.36;100.00;101020.00;2104882;28;20183;-64
2022/08/26 01:25:03;;;;;;;23.67;8.87;;;;;;;22.42;100.00;101026.44;2105147;28;20676;-64
2022/08/26 01:26:08;;;;;;;27.47;9.90;;;;;;;22.44;100.00;101024.69;2105286;28;20191;-64
2022/08/26 01:27:12;;;;;;;23.07;9.70;;;;;;;22.39;100.00;101008.47;2105217;28;20179;-64
2022/08/26 01:28:20;;;;;;;24.33;10.00;;;;;;;22.49;100.00;101029.59;2104861;28;20190;-64
2022/08/26 01:29:21;;;;;;;22.10;9.93;;;;;;;22.34;100.00;101005.59;2104468;28;20190;-64
2022/08/26 01:30:22;;;;;;;23.87;8.93;;;;;;;21.95;100.00;100937.59;2106236;28;20191;-64
2022/08/26 01:31:26;;;;;;;14.23;7.87;;;;;;;22.56;100.00;101026.28;2105798;28;20240;-64
2022/08/26 01:32:30;;;;;;;17.90;7.80;;;;;;;22.58;100.00;101023.75;2104344;28;20195;-65
2022/08/26 01:33:46;;;;;;;19.03;8.80;;;;;;;22.61;100.00;101019.16;2105439;28;20191;-64
2022/08/26 01:34:47;;;;;;;23.63;8.10;;;;;;;22.08;100.00;100940.00;2105138;28;20256;-64
2022/08/26 01:35:49;;;;;;;21.63;8.57;;;;;;;22.62;100.00;101015.03;2105181;28;20237;-64
2022/08/26 01:36:53;;;;;;;19.00;8.77;;;;;;;22.65;100.00;101017.63;2104451;28;20626;-64
2022/08/26 01:37:55;;;;;;;23.57;9.27;;;;;;;22.65;100.00;101019.66;2106080;28;20660;-64
2022/08/26 01:38:56;;;;;;;23.23;10.00;;;;;;;22.67;100.00;101019.94;2104808;28;20658;-64
2022/08/26 01:39:57;;;;;;;26.27;9.83;;;;;;;22.23;100.00;100949.06;2105443;28;20562;-65
2022/08/26 01:40:58;;;;;;;27.70;9.70;;;;;;;22.70;100.00;101014.03;2106027;28;20191;-64
2022/08/26 01:42:00;;;;;;;21.20;10.03;;;;;;;22.71;100.00;101021.22;2102825;28;20260;-64
2022/08/26 01:43:02;;;;;;;26.13;9.87;;;;;;;22.74;100.00;101008.94;2105368;28;20190;-64
2022/08/26 01:44:07;;;;;;;23.07;9.63;;;;;;;22.58;100.00;100989.06;2106005;28;20509;-64
2022/08/26 01:45:17;;;;;;;21.17;10.17;;;;;;;22.46;100.00;100971.28;2104987;28;20179;-64
2022/08/26 01:46:19;;;;;;;25.13;8.83;;;;;;;22.70;100.00;101011.22;2104901;28;20599;-64
2022/08/26 01:47:21;;;;;;;22.47;8.73;;;;;;;22.17;100.00;100928.50;2106123;28;20187;-64
2022/08/26 01:48:27;;;;;;;20.47;9.53;;;;;;;22.35;100.00;100948.63;2105580;28;20193;-64
2022/08/26 01:49:28;;;;;;;21.63;8.50;;;;;;;22.73;100.00;101010.19;2104644;28;20186;-64
2022/08/26 01:50:32;;;;;;;21.67;8.93;;;;;;;22.72;100.00;101005.81;2104153;28;20656;-64
2022/08/26 01:51:35;;;;;;;24.20;9.63;;;;;;;22.71;100.00;101003.50;2106030;28;20680;-64
2022/08/26 01:52:40;;;;;;;16.60;9.43;;;;;;;22.48;100.00;100988.53;2105673;28;20194;-64
2022/08/26 01:53:41;;;;;;;21.13;9.57;;;;;;;22.70;100.00;101001.97;2104125;28;20195;-65
2022/08/26 01:54:41;;;;;;;25.23;9.77;;;;;;;22.66;100.00;101005.03;2104437;28;20187;-63
2022/08/26 01:55:46;;;;;;;20.50;10.03;;;;;;;22.67;100.00;101006.56;2105204;28;20190;-64
2022/08/26 01:56:47;;;;;;;20.87;10.60;;;;;;;22.69;100.00;101006.84;2105178;28;20243;-64
2022/08/26 01:57:53;;;;;;;20.63;9.97;;;;;;;22.72;100.00;101014.28;2105874;28;20655;-64
2022/08/26 01:58:58;;;;;;;30.80;10.43;;;;;;;22.72;100.00;101013.53;2104532;28;20187;-65
2022/08/26 02:00:01;;;;;;;24.93;10.03;;;;;;;22.58;100.00;101012.44;2106260;28;20190;-64
2022/08/26 02:01:02;;;;;;;25.37;10.87;;;;;;;22.58;100.00;101020.16;2103935;28;20210;-64
2022/08/26 02:02:03;;;;;;;19.33;9.93;;;;;;;22.59;100.00;101014.00;2107128;28;20198;-65
2022/08/26 02:03:17;;;;;;;20.07;9.83;;;;;;;22.52;100.00;101016.53;2105920;28;20183;-65
2022/08/26 02:04:25;;;;;;;19.70;9.27;;;;;;;22.55;100.00;101009.84;2105479;28;20209;-64
2022/08/26 02:05:26;;;;;;;18.33;9.33;;;;;;;22.54;100.00;101005.47;2103840;28;20186;-65
2022/08/26 02:06:27;;;;;;;20.40;8.80;;;;;;;22.53;100.00;101009.59;2105477;28;20213;-64
2022/08/26 02:07:28;;;;;;;21.13;9.10;;;;;;;22.54;100.00;101009.09;2106141;28;20189;-64
2022/08/26 02:08:44;;;;;;;22.30;9.40;;;;;;;22.51;100.00;101009.34;2104586;28;20181;-64
2022/08/26 02:09:45;;;;;;;23.63;8.93;;;;;;;22.50;100.00;101010.59;2098740;28;20183;-65
2022/08/26 02:10:46;;;;;;;17.90;8.57;;;;;;;22.25;100.00;100960.59;2103954;28;21316;-65
2022/08/26 02:11:46;;;;;;;17.27;8.97;;;;;;;22.44;100.00;101006.94;2105545;28;20191;-64
2022/08/26 02:12:47;;;;;;;22.67;9.13;;;;;;;21.93;100.00;100928.09;2105349;28;20321;-64
2022/08/26 02:13:52;;;;;;;19.27;9.10;;;;;;;22.06;100.00;100957.41;2105555;28;20195;-64
2022/08/26 02:14:59;;;;;;;21.80;9.63;;;;;;;22.34;100.00;100995.06;2104581;28;20175;-64
2022/08/26 02:16:02;;;;;;;22.43;9.70;;;;;;;22.42;100.00;101007.44;2104198;28;20225;-65
2022/08/26 02:17:05;;;;;;;23.73;9.40;;;;;;;22.23;100.00;100994.22;2105606;28;20274;-64
2022/08/26 02:18:06;;;;;;;20.13;9.43;;;;;;;21.82;100.00;100934.44;2105580;28;20186;-65
2022/08/26 02:19:16;;;;;;;23.37;9.77;;;;;;;22.28;100.00;101014.03;2105073;28;20179;-65
2022/08/26 02:20:19;;;;;;;30.47;11.50;;;;;;;21.73;100.00;100931.81;2105152;28;20279;-64
2022/08/26 02:21:20;;;;;;;23.80;9.93;;;;;;;22.31;100.00;101017.91;2105228;28;20244;-64
2022/08/26 02:22:22;;;;;;;29.10;10.30;;;;;;;22.31;100.00;101012.25;2106182;28;20671;-64
2022/08/26 02:23:22;;;;;;;27.03;9.90;;;;;;;22.00;100.00;100969.97;2104851;28;20195;-64
2022/08/26 02:24:26;;;;;;;24.43;10.53;;;;;;;22.30;100.00;101017.13;2105456;28;20433;-64
2022/08/26 02:26:10;;;;;;;22.47;10.50;;;;;;;22.32;100.00;101016.63;2104650;28;20252;-64
2022/08/26 02:27:11;;;;;;;22.10;10.03;;;;;;;22.30;100.00;101022.78;2079282;28;20447;-64
2022/08/26 02:28:12;;;;;;;21.50;9.80;;;;;;;22.30;100.00;101013.50;2079655;28;20444;-65
2022/08/26 02:29:31;;;;;;;22.67;9.63;;;;;;;22.30;100.00;101013.50;2079788;28;20632;-65
2022/08/26 02:30:32;;;;;;;28.00;10.37;;;;;;;22.30;100.00;101013.50;2079209;28;20431;-64
2022/08/26 02:31:33;;;;;;;24.30;10.20;;;;;;;22.26;100.00;101013.00;2080145;28;20431;-64
2022/08/26 02:32:33;;;;;;;29.80;9.93;;;;;;;22.24;100.00;101015.53;2087715;28;20277;-64
2022/08/26 02:33:34;;;;;;;27.03;10.00;;;;;;;22.19;100.00;101005.75;2105182;28;20195;-64
2022/08/26 02:34:35;;;;;;;27.17;10.73;;;;;;;22.21;100.00;101011.66;2105551;28;20183;-64
2022/08/26 02:35:37;;;;;;;34.90;11.23;;;;;;;22.23;100.00;101014.00;2105106;28;20205;-65
2022/08/26 02:36:38;;;;;;;27.33;10.87;;;;;;;22.24;100.00;101021.19;2104104;28;20188;-64
2022/08/26 02:37:39;;;;;;;31.77;10.67;;;;;;;22.22;100.00;101016.03;2104273;28;20452;-65
2022/08/26 02:38:40;;;;;;;32.13;11.43;;;;;;;22.23;100.00;101011.16;2105224;28;20570;-64
2022/08/26 02:39:42;;;;;;;32.63;11.37;;;;;;;21.81;100.00;100949.03;2104691;28;20443;-64
2022/08/26 02:40:42;;;;;;;32.50;11.40;;;;;;;22.21;100.00;101008.09;2104683;28;20197;-66
2022/08/26 02:41:45;;;;;;;34.63;11.53;;;;;;;22.22;100.00;101009.63;2105892;28;20428;-64
2022/08/26 02:42:46;;;;;;;37.07;11.97;;;;;;;22.05;100.00;100986.91;2105318;28;20430;-64
2022/08/26 02:43:47;;;;;;;32.63;10.83;;;;;;;22.20;100.00;101012.16;2104238;28;20443;-64
2022/08/26 02:44:49;;;;;;;30.23;11.20;;;;;;;22.21;100.00;101016.56;2104854;28;20187;-65
2022/08/26 02:45:49;;;;;;;26.67;10.30;;;;;;;22.12;100.00;101000.59;2104991;28;20437;-64
2022/08/26 02:46:51;;;;;;;27.63;10.43;;;;;;;21.65;100.00;100933.50;2104547;28;20931;-64
2022/08/26 02:47:52;;;;;;;27.77;10.07;;;;;;;22.07;100.00;100998.50;2104640;28;20214;-64
2022/08/26 02:48:53;;;;;;;24.70;10.17;;;;;;;21.76;100.00;100944.13;2105437;28;20925;-64
2022/08/26 02:49:54;;;;;;;24.97;10.00;;;;;;;21.73;100.00;100945.13;2105771;28;20441;-64
2022/08/26 02:50:54;;;;;;;23.87;9.97;;;;;;;22.17;100.00;101018.81;2103982;28;20191;-64
2022/08/26 02:51:56;;;;;;;23.93;10.50;;;;;;;22.18;100.00;101015.50;2105430;28;20248;-64
2022/08/26 02:52:56;;;;;;;25.47;10.23;;;;;;;22.05;100.00;100991.81;2102894;28;20660;-64
2022/08/26 02:53:57;;;;;;;24.40;10.30;;;;;;;22.19;100.00;101022.69;2105778;28;20805;-64
2022/08/26 02:54:57;;;;;;;28.20;9.97;;;;;;;21.69;100.00;100950.25;2104027;28;20194;-64
2022/08/26 02:55:58;;;;;;;31.43;10.93;;;;;;;22.12;100.00;101020.34;2104259;28;20266;-64
2022/08/26 02:56:59;;;;;;;22.77;9.57;;;;;;;22.13;100.00;101021.09;2105182;28;20217;-64
2022/08/26 02:58:00;;;;;;;26.93;10.10;;;;;;;21.68;100.00;100954.28;2104170;28;20269;-64
2022/08/26 02:59:00;;;;;;;22.73;10.27;;;;;;;22.09;100.00;101029.81;2105551;28;20644;-64
2022/08/26 03:00:03;;;;;;;23.37;10.10;;;;;;;22.08;100.00;101021.84;2105207;28;20444;-64
2022/08/26 03:01:03;;;;;;;23.83;10.63;;;;;;;21.91;100.00;101012.47;2104624;28;20183;-64
2022/08/26 03:02:04;;;;;;;22.37;9.27;;;;;;;22.08;100.00;101019.78;2103995;28;20437;-64
2022/08/26 03:03:05;;;;;;;24.57;10.00;;;;;;;22.09;100.00;101020.56;2105031;28;20183;-65
2022/08/26 03:04:08;;;;;;;18.00;9.00;;;;;;;22.13;100.00;101021.09;2104476;28;20444;-64
2022/08/26 03:05:10;;;;;;;25.43;9.90;;;;;;;22.05;100.00;101005.91;2104174;28;20270;-65
2022/08/26 03:06:10;;;;;;;22.20;8.90;;;;;;;22.13;100.00;101024.72;2103991;28;20511;-64
2022/08/26 03:07:11;;;;;;;23.90;9.23;;;;;;;22.07;100.00;101009.00;2105442;28;20420;-64
2022/08/26 03:08:12;;;;;;;21.97;9.17;;;;;;;22.14;100.00;101019.81;2105576;28;20178;-64
2022/08/26 03:09:12;;;;;;;20.80;9.27;;;;;;;22.10;100.00;101025.69;2104950;28;20263;-64
2022/08/26 03:10:13;;;;;;;27.40;10.27;;;;;;;22.06;100.00;101024.41;2105721;28;20262;-65
2022/08/26 03:11:14;;;;;;;19.90;9.80;;;;;;;21.19;100.00;100912.34;2105431;28;20191;-64
2022/08/26 03:12:15;;;;;;;31.43;10.40;;;;;;;21.64;100.00;100973.50;2105555;28;20548;-64
2022/08/26 03:13:17;;;;;;;20.73;10.70;;;;;;;21.98;100.00;101029.72;2104468;28;20194;-64
2022/08/26 03:14:17;;;;;;;26.33;10.30;;;;;;;21.81;100.00;101005.47;2102899;28;20218;-64
2022/08/26 03:15:18;;;;;;;27.07;10.27;;;;;;;21.99;100.00;101022.81;2103732;28;20428;-64
2022/08/26 03:16:19;;;;;;;29.53;9.73;;;;;;;22.01;100.00;101027.94;2104392;28;20648;-64
2022/08/26 03:17:19;;;;;;;22.27;10.40;;;;;;;22.03;100.00;101033.84;2104487;28;20187;-64
2022/08/26 03:18:20;;;;;;;21.43;10.23;;;;;;;22.06;100.00;101030.81;2104440;28;20573;-64
2022/08/26 03:19:23;;;;;;;19.30;10.17;;;;;;;22.09;100.00;101037.50;2105165;28;20569;-64
2022/08/26 03:20:24;;;;;;;23.93;10.30;;;;;;;22.08;100.00;101027.47;2105173;28;20194;-64
2022/08/26 03:21:24;;;;;;;23.17;9.90;;;;;;;21.97;100.00;101019.72;2104662;28;20464;-65
2022/08/26 03:22:25;;;;;;;25.70;10.20;;;;;;;22.08;100.00;101038.78;2104482;28;20261;-64
2022/08/26 03:23:26;;;;;;;23.20;9.87;;;;;;;21.75;100.00;100988.47;2105572;28;20560;-64
2022/08/26 03:24:26;;;;;;;22.30;9.90;;;;;;;22.07;100.00;101045.69;2104647;28;20183;-64
2022/08/26 03:25:27;;;;;;;21.87;9.90;;;;;;;22.06;100.00;101039.25;2104028;28;20197;-64
2022/08/26 03:26:27;;;;;;;18.87;9.87;;;;;;;22.07;100.00;101042.88;2104839;28;20254;-64
2022/08/26 03:27:28;;;;;;;20.73;10.13;;;;;;;21.97;100.00;101027.41;2105619;28;20546;-64
2022/08/26 03:28:29;;;;;;;26.67;10.43;;;;;;;21.48;100.00;100946.69;2104695;28;20182;-64
2022/08/26 03:30:48;;;;;;;39.33;11.63;;;;;;;22.14;100.00;101046.00;2104290;28;20405;-65
2022/08/26 03:31:49;;;;;;;39.53;11.50;;;;;;;22.17;100.00;101050.66;2103878;28;20441;-65
2022/08/26 03:32:49;;;;;;;29.93;11.30;;;;;;;22.20;100.00;101043.22;2105350;28;20190;-64
2022/08/26 03:33:50;;;;;;;32.57;11.60;;;;;;;22.04;100.00;101036.19;2104896;28;20582;-64
2022/08/26 03:34:51;;;;;;;29.57;11.77;;;;;;;22.27;100.00;101048.41;2104227;28;20267;-65
2022/08/26 03:35:53;;;;;;;24.20;9.57;;;;;;;21.87;100.00;100986.53;2105189;28;20695;-65
2022/08/26 03:36:53;;;;;;;28.07;10.37;;;;;;;22.32;100.00;101050.50;2105166;28;20425;-64
2022/08/26 03:37:54;;;;;;;25.67;9.97;;;;;;;22.33;100.00;101052.03;2104176;28;20960;-64
2022/08/26 03:38:55;;;;;;;29.40;10.63;;;;;;;22.36;100.00;101051.81;2104975;28;20178;-65
2022/08/26 03:39:55;;;;;;;27.63;10.43;;;;;;;22.09;100.00;101020.56;2104587;28;20647;-64
2022/08/26 03:40:56;;;;;;;23.93;10.17;;;;;;;22.37;100.00;101046.94;2105470;28;20183;-64
2022/08/26 03:41:57;;;;;;;30.40;10.43;;;;;;;22.35;100.00;101060.78;2105040;28;20178;-64
2022/08/26 03:42:58;;;;;;;24.13;10.03;;;;;;;22.36;100.00;101057.44;2105431;28;20182;-65
2022/08/26 03:43:59;;;;;;;28.87;10.07;;;;;;;22.40;100.00;101058.00;2105112;28;20182;-64
2022/08/26 03:44:59;;;;;;;35.20;10.57;;;;;;;22.34;100.00;101050.75;2105259;28;20190;-64
2022/08/26 03:46:08;;;;;;;27.23;10.37;;;;;;;22.41;100.00;101053.91;2105160;28;20387;-65
2022/08/26 03:47:08;;;;;;;28.57;10.57;;;;;;;22.45;100.00;101059.34;2105181;28;20225;-65
2022/08/26 03:48:10;;;;;;;25.00;10.47;;;;;;;22.24;100.00;101036.06;2105577;28;20186;-65
2022/08/26 03:49:10;;;;;;;27.73;10.20;;;;;;;22.46;100.00;101061.66;2104525;28;20210;-65
2022/08/26 03:50:14;;;;;;;22.33;10.27;;;;;;;22.49;100.00;101060.66;2104729;28;20217;-64
2022/08/26 03:51:17;;;;;;;24.60;10.13;;;;;;;22.50;100.00;101062.22;2105338;28;20672;-64
2022/08/26 03:52:18;;;;;;;22.97;9.83;;;;;;;22.49;100.00;101059.88;2105061;28;20213;-65
2022/08/26 03:53:18;;;;;;;30.47;11.10;;;;;;;22.13;100.00;101010.59;2104051;28;20186;-64
2022/08/26 03:54:19;;;;;;;28.70;10.47;;;;;;;22.18;100.00;101006.25;2105474;28;20675;-63
2022/08/26 03:55:23;;;;;;;27.27;10.33;;;;;;;22.48;100.00;101055.50;2104840;28;20183;-64
2022/08/26 03:56:23;;;;;;;18.90;9.80;;;;;;;22.25;100.00;101017.06;2104684;28;20205;-64
2022/08/26 03:57:24;;;;;;;27.13;10.93;;;;;;;22.41;100.00;101027.72;2104313;28;20795;-64
2022/08/26 03:58:25;;;;;;;27.67;10.87;;;;;;;22.60;100.00;101057.91;2104148;28;20194;-64
2022/08/26 03:59:25;;;;;;;30.07;11.47;;;;;;;22.60;100.00;101065.59;2104081;28;20194;-64
2022/08/26 04:00:26;;;;;;;24.47;10.60;;;;;;;22.19;100.00;100988.03;2105037;28;20198;-64
2022/08/26 04:01:28;;;;;;;25.27;11.27;;;;;;;22.65;100.00;101053.56;2105219;28;20190;-65
2022/08/26 04:02:28;;;;;;;24.33;10.37;;;;;;;22.67;100.00;101056.66;2105252;28;20607;-64
2022/08/26 04:04:48;;;;;;;27.13;11.80;;;;;;;22.69;100.00;101056.91;2104359;28;20254;-65
2022/08/26 04:05:51;;;;;;;25.60;11.13;;;;;;;22.70;100.00;101058.47;2104894;28;20429;-64
2022/08/26 04:06:57;;;;;;;22.13;10.27;;;;;;;22.70;100.00;101064.13;2105198;28;20206;-64
2022/08/26 04:07:57;;;;;;;26.13;10.43;;;;;;;22.71;100.00;101060.78;2104400;28;20456;-65
2022/08/26 04:09:01;;;;;;;18.23;9.70;;;;;;;22.20;100.00;100986.75;2104844;28;20468;-64
2022/08/26 04:10:03;;;;;;;26.77;10.00;;;;;;;22.69;100.00;101051.28;2104949;28;20194;-64
2022/08/26 04:11:04;;;;;;;19.20;9.80;;;;;;;22.30;100.00;100997.34;2104934;28;20448;-63
2022/08/26 04:12:05;;;;;;;20.50;9.60;;;;;;;21.98;100.00;100944.28;2104489;28;20425;-64
2022/08/26 04:13:05;;;;;;;18.03;10.17;;;;;;;22.72;100.00;101050.28;2104248;28;20203;-64
2022/08/26 04:14:09;;;;;;;22.23;10.03;;;;;;;22.38;100.00;100994.84;2105402;28;20179;-64
2022/08/26 04:15:14;;;;;;;30.00;9.93;;;;;;;22.56;100.00;101029.13;2103153;28;20178;-64
2022/08/26 04:16:16;;;;;;;21.03;10.07;;;;;;;22.63;100.00;101031.44;2099322;28;20532;-64
2022/08/26 04:17:17;;;;;;;22.83;9.70;;;;;;;22.73;100.00;101040.50;2104338;28;20705;-64
2022/08/26 04:18:18;;;;;;;24.37;12.47;;;;;;;22.72;100.00;101044.63;2105102;28;20875;-64
2022/08/26 04:19:20;;;;;;;27.63;13.70;;;;;;;22.74;100.00;101050.53;2105759;28;20476;-64
2022/08/26 04:20:20;;;;;;;34.93;13.63;;;;;;;22.77;100.00;101047.47;2105511;28;20718;-64
2022/08/26 04:21:21;;;;;;;27.73;12.73;;;;;;;22.77;100.00;101049.53;2104101;28;20920;-64
2022/08/26 04:22:22;;;;;;;23.87;12.20;;;;;;;22.19;100.00;100957.78;2103076;28;20203;-63
2022/08/26 04:23:22;;;;;;;23.60;12.03;;;;;;;22.50;100.00;101011.38;2106280;28;20191;-64
2022/08/26 04:24:25;;;;;;;30.07;12.47;;;;;;;22.69;100.00;101051.28;2103675;28;20573;-63
2022/08/26 04:25:25;;;;;;;24.93;11.80;;;;;;;22.69;100.00;101049.22;2103956;28;20187;-63
2022/08/26 04:26:26;;;;;;;34.70;12.53;;;;;;;22.74;100.00;101047.69;2101321;28;20321;-64
2022/08/26 04:27:26;;;;;;;29.23;12.70;;;;;;;22.75;100.00;101054.91;2104255;28;20222;-64
2022/08/26 04:28:28;;;;;;;30.87;12.23;;;;;;;22.75;100.00;101072.63;2101024;28;20682;-63
2022/08/26 04:29:28;;;;;;;25.53;11.37;;;;;;;22.75;100.00;101054.91;2104379;28;20856;-63
2022/08/26 04:30:29;;;;;;;26.33;11.17;;;;;;;22.76;100.00;101056.44;2105287;28;20700;-63
2022/08/26 04:31:29;;;;;;;28.93;11.40;;;;;;;22.76;100.00;101054.41;2103734;28;20202;-63
2022/08/26 04:32:30;;;;;;;26.20;11.87;;;;;;;22.52;100.00;101011.63;2106348;28;20270;-63
2022/08/26 04:33:31;;;;;;;25.53;11.53;;;;;;;22.80;100.00;101059.81;2104579;28;20195;-64
2022/08/26 04:34:31;;;;;;;4.43;2.87;;;;;;;22.94;100.00;101050.38;2109055;28;20572;-63
2022/08/26 04:35:33;;;;;;;14.53;7.43;;;;;;;23.87;100.00;101025.16;2104116;28;20671;-62
2022/08/26 04:36:34;;;;;;;6.57;3.23;;;;;;;24.21;100.00;100997.63;2103217;28;20187;-63
2022/08/26 04:37:34;;;;;;;6.63;4.13;;;;;;;24.34;100.00;100995.00;2104081;28;20489;-64
2022/08/26 04:38:35;;;;;;;16.10;6.37;;;;;;;24.52;100.00;100985.97;2105916;28;20356;-63
2022/08/26 04:39:35;;;;;;;11.93;6.07;;;;;;;24.73;100.00;100981.53;2104628;28;20214;-63
2022/08/26 04:40:41;;;;;;;16.10;5.60;;;;;;;24.99;100.00;100981.91;2104435;28;20191;-63
2022/08/26 04:41:43;;;;;;;16.93;7.27;;;;;;;24.66;100.00;100882.91;2103218;28;20775;-63
2022/08/26 04:42:44;;;;;;;16.30;6.53;;;;;;;25.36;100.00;100965.22;2105931;28;20191;-63
2022/08/26 04:43:47;;;;;;;13.37;6.93;;;;;;;25.45;100.00;100970.56;2104187;28;20744;-64
2022/08/26 04:44:48;;;;;;;19.37;8.63;;;;;;;25.50;100.00;100925.16;2104868;28;20197;-63
2022/08/26 04:45:49;;;;;;;27.17;12.10;;;;;;;25.88;100.00;100980.00;2105644;28;20276;-63
2022/08/26 04:46:49;;;;;;;18.77;8.83;;;;;;;25.62;100.00;100909.56;2105512;28;20187;-63